Historique des mesures à Cassis (13260), France
Quotidien Résumé Juin 27, 2017 Unités:  Métrique    US   Métrique/US
« Précédent (Jour)
Suivant (Jour) »
Quotidien Hebdomadaire Mensuel Annuel Période au choix
  Maximum: Minimum: Moyenne:
Température: TemperatureC °C 22.8 °C 25.9 °C
Point de rosée: DewpointC °C 18.6 °C 19.3 °C
Humidité: Humidity % 51 % 64 %
Vitesse du vent: 0 km/h 0 km/h 4 km/h
Rafales: 0 km/h - -
Vent:- - SSE
Pression: PressurehPa hPa 1001.9 hPa -
Précipitations: 0.0 mm    
Historical Graphs
 
 
Mesures pour : Juin 27, 2017
Heure Temperature Point de rosée Pression Vent Vitesse du vent Rafales Humidité Pluie (par heure) Conditions
TemperatureC °C DewpointC °C PressurehPa hPa Calm     Humidity % HourlyPrecipMM mm SoftwareType W/m2
00:10 24.2 °C 19.9 °C 1005.6 hPa Calm     77 % 0.0 mm open2300-1.11 W/m2
01:10 23.5 °C 19.5 °C 1005.6 hPa Calm     78 % 0.0 mm open2300-1.11 W/m2
02:10 23.5 °C 19.1 °C 1005.3 hPa Calm     76 % 0.0 mm open2300-1.11 W/m2
03:10 23.4 °C 18.9 °C 1004.6 hPa Calm     76 % 0.0 mm open2300-1.11 W/m2
04:10 23.4 °C 18.9 °C 1004.3 hPa NNE 2.9 km/h 2.9 km/h 76 % 0.0 mm open2300-1.11 W/m2
05:10 23.3 °C 18.8 °C 1004.3 hPa Calm   4.2 km/h 76 % 0.0 mm open2300-1.11 W/m2
06:10 22.8 °C 18.6 °C 1004.6 hPa Calm     77 % 0.0 mm open2300-1.11 W/m2
07:10 23.0 °C 18.8 °C 1004.6 hPa Calm     77 % 0.0 mm open2300-1.11 W/m2
08:10 25.3 °C 19.9 °C 1005.0 hPa Calm     72 % 0.0 mm open2300-1.11 W/m2
09:11 25.4 °C 19.8 °C 1004.6 hPa SSE 4.2 km/h 9.3 km/h 71 % 0.0 mm open2300-1.11 W/m2
10:10 27.1 °C 20.9 °C 1004.6 hPa South 6.4 km/h 6.4 km/h 69 % 0.0 mm open2300-1.11 W/m2
11:11 30.6 °C 21.4 °C 1004.6 hPa SE 5.6 km/h 7.6 km/h 58 % 0.0 mm open2300-1.11 W/m2
12:10 31.6 °C 22.7 °C 1005.0 hPa SSE 17.9 km/h 17.9 km/h 59 % 0.0 mm open2300-1.11 W/m2
13:11 31.8 °C 21.6 °C 1005.0 hPa South 8 km/h 15 km/h 55 % 0.0 mm open2300-1.11 W/m2
14:10 32.0 °C 21.5 °C 1004.6 hPa SSE 7.6 km/h 8 km/h 54 % 0.0 mm open2300-1.11 W/m2
15:10 31.3 °C 20.6 °C 1004.6 hPa SE 9.3 km/h 9.3 km/h 53 % 0.0 mm open2300-1.11 W/m2
16:10 30.8 °C 20.4 °C 1004.3 hPa SE 3.4 km/h 9.3 km/h 54 % 0.0 mm open2300-1.11 W/m2
17:10 30.8 °C 19.5 °C 1003.6 hPa SSW 6.4 km/h 16.3 km/h 51 % 0.0 mm open2300-1.11 W/m2
18:10 29.4 °C 20.6 °C 1003.3 hPa SSE 2.3 km/h 14.5 km/h 59 % 0.0 mm open2300-1.11 W/m2
19:10 28.8 °C 20.8 °C 1002.3 hPa West 14 km/h 14.5 km/h 62 % 0.0 mm open2300-1.11 W/m2
20:10 28.1 °C 20.3 °C 1001.9 hPa SSE 8 km/h 9.3 km/h 63 % 0.0 mm open2300-1.11 W/m2
21:10 26.8 °C 19.9 °C 1001.9 hPa SSE 4.2 km/h 5.1 km/h 66 % 0.0 mm open2300-1.11 W/m2
22:11 25.9 °C 20.0 °C 1002.3 hPa Calm   2.3 km/h 70 % 0.0 mm open2300-1.11 W/m2
23:11 25.4 °C 19.8 °C 1002.9 hPa Calm   3.4 km/h 71 % 0.0 mm open2300-1.11 W/m2
Observations météo à CASSIS
WU-History script by Weather Underground - 1 mb